Aviation Digital Data Service (ADDS)

Output produced by METARs form (0236 UTC 03 August 2015)
found at http://aviationweather.gov/adds/metars/
 
KLYH 022329Z 0300/0324 00000KT P6SM SCT250 
     FM031400 21006KT P6SM SCT070